sensor_id;sensor_type;location;lat;lon;timestamp;P1;durP1;ratioP1;P2;durP2;ratioP2
3070;SDS011;1546;47.208;9.038;2023-05-20T00:01:50;12.85;;;8.88;;
3070;SDS011;1546;47.208;9.038;2023-05-20T00:04:17;19.50;;;9.68;;
3070;SDS011;1546;47.208;9.038;2023-05-20T00:06:44;12.75;;;9.13;;
3070;SDS011;1546;47.208;9.038;2023-05-20T00:09:11;14.93;;;9.05;;
3070;SDS011;1546;47.208;9.038;2023-05-20T00:11:38;15.65;;;9.38;;
3070;SDS011;1546;47.208;9.038;2023-05-20T00:14:06;17.70;;;9.20;;
3070;SDS011;1546;47.208;9.038;2023-05-20T00:16:33;17.60;;;10.70;;
3070;SDS011;1546;47.208;9.038;2023-05-20T00:19:00;17.83;;;10.18;;
3070;SDS011;1546;47.208;9.038;2023-05-20T00:21:27;19.58;;;9.73;;
3070;SDS011;1546;47.208;9.038;2023-05-20T00:23:55;15.15;;;9.43;;
3070;SDS011;1546;47.208;9.038;2023-05-20T00:26:22;17.67;;;9.82;;
3070;SDS011;1546;47.208;9.038;2023-05-20T00:28:49;14.57;;;8.25;;
3070;SDS011;1546;47.208;9.038;2023-05-20T00:31:17;14.50;;;8.90;;
3070;SDS011;1546;47.208;9.038;2023-05-20T00:33:44;14.80;;;9.18;;
3070;SDS011;1546;47.208;9.038;2023-05-20T00:36:11;15.38;;;9.20;;
3070;SDS011;1546;47.208;9.038;2023-05-20T00:38:37;18.85;;;8.65;;
3070;SDS011;1546;47.208;9.038;2023-05-20T00:41:04;18.40;;;10.60;;
3070;SDS011;1546;47.208;9.038;2023-05-20T00:43:31;12.60;;;8.15;;
3070;SDS011;1546;47.208;9.038;2023-05-20T00:45:58;15.13;;;7.80;;
3070;SDS011;1546;47.208;9.038;2023-05-20T00:48:27;13.18;;;7.38;;
3070;SDS011;1546;47.208;9.038;2023-05-20T00:51:02;16.05;;;8.15;;
3070;SDS011;1546;47.208;9.038;2023-05-20T00:53:29;15.15;;;8.38;;
3070;SDS011;1546;47.208;9.038;2023-05-20T00:55:56;13.73;;;7.65;;
3070;SDS011;1546;47.208;9.038;2023-05-20T00:58:23;12.77;;;7.63;;
3070;SDS011;1546;47.208;9.038;2023-05-20T01:00:50;16.92;;;8.88;;
3070;SDS011;1546;47.208;9.038;2023-05-20T01:03:17;16.35;;;10.88;;
3070;SDS011;1546;47.208;9.038;2023-05-20T01:05:45;24.90;;;11.48;;
3070;SDS011;1546;47.208;9.038;2023-05-20T01:08:12;15.50;;;9.43;;
3070;SDS011;1546;47.208;9.038;2023-05-20T01:10:40;16.05;;;10.38;;
3070;SDS011;1546;47.208;9.038;2023-05-20T01:13:10;20.98;;;9.32;;
3070;SDS011;1546;47.208;9.038;2023-05-20T01:15:42;13.98;;;7.63;;
3070;SDS011;1546;47.208;9.038;2023-05-20T01:18:11;14.43;;;7.47;;
3070;SDS011;1546;47.208;9.038;2023-05-20T01:20:42;13.20;;;9.25;;
3070;SDS011;1546;47.208;9.038;2023-05-20T01:23:12;15.93;;;10.00;;
3070;SDS011;1546;47.208;9.038;2023-05-20T01:25:39;14.27;;;9.32;;
3070;SDS011;1546;47.208;9.038;2023-05-20T01:28:07;17.45;;;10.32;;
3070;SDS011;1546;47.208;9.038;2023-05-20T01:30:38;15.65;;;10.10;;
3070;SDS011;1546;47.208;9.038;2023-05-20T01:33:10;15.27;;;8.05;;
3070;SDS011;1546;47.208;9.038;2023-05-20T01:35:38;14.50;;;7.85;;
3070;SDS011;1546;47.208;9.038;2023-05-20T01:38:06;10.32;;;6.80;;
3070;SDS011;1546;47.208;9.038;2023-05-20T01:40:34;10.82;;;6.88;;
3070;SDS011;1546;47.208;9.038;2023-05-20T01:43:02;12.77;;;7.60;;
3070;SDS011;1546;47.208;9.038;2023-05-20T01:45:30;11.85;;;7.15;;
3070;SDS011;1546;47.208;9.038;2023-05-20T01:47:57;10.95;;;7.10;;
3070;SDS011;1546;47.208;9.038;2023-05-20T01:50:23;14.68;;;6.95;;
3070;SDS011;1546;47.208;9.038;2023-05-20T01:52:50;11.35;;;6.38;;
3070;SDS011;1546;47.208;9.038;2023-05-20T01:55:17;11.88;;;7.53;;
3070;SDS011;1546;47.208;9.038;2023-05-20T01:57:45;9.43;;;5.95;;
3070;SDS011;1546;47.208;9.038;2023-05-20T02:00:12;10.25;;;6.32;;
3070;SDS011;1546;47.208;9.038;2023-05-20T02:02:40;12.80;;;7.25;;
3070;SDS011;1546;47.208;9.038;2023-05-20T02:05:07;11.18;;;6.95;;
3070;SDS011;1546;47.208;9.038;2023-05-20T02:07:34;10.40;;;6.40;;
3070;SDS011;1546;47.208;9.038;2023-05-20T02:10:01;14.40;;;7.50;;
3070;SDS011;1546;47.208;9.038;2023-05-20T02:12:28;12.48;;;6.22;;
3070;SDS011;1546;47.208;9.038;2023-05-20T02:14:56;11.35;;;7.15;;
3070;SDS011;1546;47.208;9.038;2023-05-20T02:17:24;10.10;;;6.35;;
3070;SDS011;1546;47.208;9.038;2023-05-20T02:19:51;9.98;;;6.38;;
3070;SDS011;1546;47.208;9.038;2023-05-20T02:22:18;9.68;;;5.38;;
3070;SDS011;1546;47.208;9.038;2023-05-20T02:24:45;9.68;;;6.18;;
3070;SDS011;1546;47.208;9.038;2023-05-20T02:27:12;13.95;;;6.43;;
3070;SDS011;1546;47.208;9.038;2023-05-20T02:29:38;12.23;;;7.00;;
3070;SDS011;1546;47.208;9.038;2023-05-20T02:32:07;10.73;;;6.45;;
3070;SDS011;1546;47.208;9.038;2023-05-20T02:34:33;11.25;;;5.95;;
3070;SDS011;1546;47.208;9.038;2023-05-20T02:37:00;10.45;;;6.47;;
3070;SDS011;1546;47.208;9.038;2023-05-20T02:39:27;14.35;;;6.15;;
3070;SDS011;1546;47.208;9.038;2023-05-20T02:41:54;9.25;;;5.70;;
3070;SDS011;1546;47.208;9.038;2023-05-20T02:44:21;11.10;;;5.88;;
3070;SDS011;1546;47.208;9.038;2023-05-20T02:46:48;8.48;;;5.45;;
3070;SDS011;1546;47.208;9.038;2023-05-20T02:49:16;10.15;;;5.78;;
3070;SDS011;1546;47.208;9.038;2023-05-20T02:51:43;9.43;;;5.53;;
3070;SDS011;1546;47.208;9.038;2023-05-20T02:54:09;8.07;;;5.30;;
3070;SDS011;1546;47.208;9.038;2023-05-20T02:56:36;7.65;;;5.40;;
3070;SDS011;1546;47.208;9.038;2023-05-20T02:59:03;11.75;;;4.45;;
3070;SDS011;1546;47.208;9.038;2023-05-20T03:01:31;9.88;;;4.97;;
3070;SDS011;1546;47.208;9.038;2023-05-20T03:03:59;10.00;;;5.55;;
3070;SDS011;1546;47.208;9.038;2023-05-20T03:06:28;9.40;;;5.60;;
3070;SDS011;1546;47.208;9.038;2023-05-20T03:08:55;8.55;;;5.88;;
3070;SDS011;1546;47.208;9.038;2023-05-20T03:11:23;9.60;;;5.85;;
3070;SDS011;1546;47.208;9.038;2023-05-20T03:13:50;9.68;;;6.38;;
3070;SDS011;1546;47.208;9.038;2023-05-20T03:16:17;9.10;;;5.25;;
3070;SDS011;1546;47.208;9.038;2023-05-20T03:18:44;9.40;;;5.65;;
3070;SDS011;1546;47.208;9.038;2023-05-20T03:21:11;10.15;;;5.72;;
3070;SDS011;1546;47.208;9.038;2023-05-20T03:23:39;8.18;;;5.40;;
3070;SDS011;1546;47.208;9.038;2023-05-20T03:26:06;12.85;;;6.57;;
3070;SDS011;1546;47.208;9.038;2023-05-20T03:28:34;9.50;;;5.80;;
3070;SDS011;1546;47.208;9.038;2023-05-20T03:31:01;11.48;;;5.03;;
3070;SDS011;1546;47.208;9.038;2023-05-20T03:33:28;10.52;;;4.82;;
3070;SDS011;1546;47.208;9.038;2023-05-20T03:35:55;12.25;;;5.00;;
3070;SDS011;1546;47.208;9.038;2023-05-20T03:38:22;9.18;;;5.20;;
3070;SDS011;1546;47.208;9.038;2023-05-20T03:40:50;8.63;;;4.35;;
3070;SDS011;1546;47.208;9.038;2023-05-20T03:43:17;8.43;;;4.75;;
3070;SDS011;1546;47.208;9.038;2023-05-20T03:45:44;8.55;;;4.60;;
3070;SDS011;1546;47.208;9.038;2023-05-20T03:48:10;7.57;;;4.70;;
3070;SDS011;1546;47.208;9.038;2023-05-20T03:50:37;9.02;;;4.28;;
3070;SDS011;1546;47.208;9.038;2023-05-20T03:53:04;13.05;;;6.85;;
3070;SDS011;1546;47.208;9.038;2023-05-20T03:55:31;9.57;;;5.07;;
3070;SDS011;1546;47.208;9.038;2023-05-20T03:57:59;9.93;;;5.50;;
3070;SDS011;1546;47.208;9.038;2023-05-20T04:00:26;9.02;;;4.88;;
3070;SDS011;1546;47.208;9.038;2023-05-20T04:02:55;13.20;;;7.82;;
3070;SDS011;1546;47.208;9.038;2023-05-20T04:05:22;9.75;;;5.95;;
3070;SDS011;1546;47.208;9.038;2023-05-20T04:07:49;11.35;;;5.35;;
3070;SDS011;1546;47.208;9.038;2023-05-20T04:10:17;16.27;;;8.63;;
3070;SDS011;1546;47.208;9.038;2023-05-20T04:12:44;17.23;;;10.23;;
3070;SDS011;1546;47.208;9.038;2023-05-20T04:15:13;18.60;;;10.05;;
3070;SDS011;1546;47.208;9.038;2023-05-20T04:17:40;13.07;;;8.40;;
3070;SDS011;1546;47.208;9.038;2023-05-20T04:20:07;13.85;;;8.65;;
3070;SDS011;1546;47.208;9.038;2023-05-20T04:22:35;13.32;;;8.20;;
3070;SDS011;1546;47.208;9.038;2023-05-20T04:25:03;9.00;;;5.05;;
3070;SDS011;1546;47.208;9.038;2023-05-20T04:27:31;7.60;;;4.38;;
3070;SDS011;1546;47.208;9.038;2023-05-20T04:29:58;8.73;;;4.85;;
3070;SDS011;1546;47.208;9.038;2023-05-20T04:32:27;7.28;;;4.20;;
3070;SDS011;1546;47.208;9.038;2023-05-20T04:34:54;8.98;;;4.63;;
3070;SDS011;1546;47.208;9.038;2023-05-20T04:37:21;8.02;;;4.75;;
3070;SDS011;1546;47.208;9.038;2023-05-20T04:39:49;10.15;;;5.68;;
3070;SDS011;1546;47.208;9.038;2023-05-20T04:42:16;9.80;;;4.70;;
3070;SDS011;1546;47.208;9.038;2023-05-20T04:44:44;8.23;;;4.70;;
3070;SDS011;1546;47.208;9.038;2023-05-20T04:47:12;10.90;;;6.32;;
3070;SDS011;1546;47.208;9.038;2023-05-20T04:49:40;11.45;;;6.32;;
3070;SDS011;1546;47.208;9.038;2023-05-20T04:52:07;10.85;;;6.32;;
3070;SDS011;1546;47.208;9.038;2023-05-20T04:54:34;12.75;;;7.88;;
3070;SDS011;1546;47.208;9.038;2023-05-20T04:57:01;13.25;;;7.60;;
3070;SDS011;1546;47.208;9.038;2023-05-20T04:59:28;15.70;;;9.60;;
3070;SDS011;1546;47.208;9.038;2023-05-20T05:01:55;11.65;;;6.90;;
3070;SDS011;1546;47.208;9.038;2023-05-20T05:04:22;15.35;;;9.30;;
3070;SDS011;1546;47.208;9.038;2023-05-20T05:06:50;13.55;;;8.63;;
3070;SDS011;1546;47.208;9.038;2023-05-20T05:09:17;13.70;;;8.90;;
3070;SDS011;1546;47.208;9.038;2023-05-20T05:11:44;15.40;;;9.40;;
3070;SDS011;1546;47.208;9.038;2023-05-20T05:14:10;12.48;;;8.55;;
3070;SDS011;1546;47.208;9.038;2023-05-20T05:16:37;12.63;;;7.32;;
3070;SDS011;1546;47.208;9.038;2023-05-20T05:19:04;8.88;;;5.18;;
3070;SDS011;1546;47.208;9.038;2023-05-20T05:21:31;7.90;;;5.28;;
3070;SDS011;1546;47.208;9.038;2023-05-20T05:23:59;7.75;;;4.30;;
3070;SDS011;1546;47.208;9.038;2023-05-20T05:26:26;8.93;;;4.70;;
3070;SDS011;1546;47.208;9.038;2023-05-20T05:28:53;9.18;;;4.32;;
3070;SDS011;1546;47.208;9.038;2023-05-20T05:31:20;8.35;;;3.83;;
3070;SDS011;1546;47.208;9.038;2023-05-20T05:33:47;10.02;;;5.38;;
3070;SDS011;1546;47.208;9.038;2023-05-20T05:36:14;11.50;;;6.18;;
3070;SDS011;1546;47.208;9.038;2023-05-20T05:38:41;11.73;;;6.35;;
3070;SDS011;1546;47.208;9.038;2023-05-20T05:41:09;17.08;;;8.35;;
3070;SDS011;1546;47.208;9.038;2023-05-20T05:43:36;16.25;;;9.35;;
3070;SDS011;1546;47.208;9.038;2023-05-20T05:46:03;12.45;;;4.88;;
3070;SDS011;1546;47.208;9.038;2023-05-20T05:48:30;8.15;;;4.75;;
3070;SDS011;1546;47.208;9.038;2023-05-20T05:50:57;8.50;;;5.40;;
3070;SDS011;1546;47.208;9.038;2023-05-20T05:53:24;8.43;;;4.90;;
3070;SDS011;1546;47.208;9.038;2023-05-20T05:55:51;11.27;;;7.60;;
3070;SDS011;1546;47.208;9.038;2023-05-20T05:58:19;10.50;;;5.80;;
3070;SDS011;1546;47.208;9.038;2023-05-20T06:00:46;10.23;;;6.35;;
3070;SDS011;1546;47.208;9.038;2023-05-20T06:03:16;9.93;;;6.25;;
3070;SDS011;1546;47.208;9.038;2023-05-20T06:05:43;14.80;;;8.95;;
3070;SDS011;1546;47.208;9.038;2023-05-20T06:08:11;15.73;;;10.70;;
3070;SDS011;1546;47.208;9.038;2023-05-20T06:10:38;16.75;;;10.77;;
3070;SDS011;1546;47.208;9.038;2023-05-20T06:13:04;18.05;;;12.23;;
3070;SDS011;1546;47.208;9.038;2023-05-20T06:15:33;16.58;;;10.95;;
3070;SDS011;1546;47.208;9.038;2023-05-20T06:18:00;13.80;;;9.50;;
3070;SDS011;1546;47.208;9.038;2023-05-20T06:20:27;15.68;;;10.90;;
3070;SDS011;1546;47.208;9.038;2023-05-20T06:22:53;13.93;;;9.13;;
3070;SDS011;1546;47.208;9.038;2023-05-20T06:25:20;19.02;;;10.82;;
3070;SDS011;1546;47.208;9.038;2023-05-20T06:27:48;15.90;;;10.95;;
3070;SDS011;1546;47.208;9.038;2023-05-20T06:30:15;14.88;;;10.35;;
3070;SDS011;1546;47.208;9.038;2023-05-20T06:32:44;15.70;;;9.45;;
3070;SDS011;1546;47.208;9.038;2023-05-20T06:35:11;14.80;;;10.32;;
3070;SDS011;1546;47.208;9.038;2023-05-20T06:37:38;17.83;;;11.30;;
3070;SDS011;1546;47.208;9.038;2023-05-20T06:40:05;17.02;;;11.90;;
3070;SDS011;1546;47.208;9.038;2023-05-20T06:42:33;16.35;;;10.75;;
3070;SDS011;1546;47.208;9.038;2023-05-20T06:45:00;17.08;;;11.30;;
3070;SDS011;1546;47.208;9.038;2023-05-20T06:47:27;14.75;;;9.68;;
3070;SDS011;1546;47.208;9.038;2023-05-20T06:49:55;13.10;;;10.25;;
3070;SDS011;1546;47.208;9.038;2023-05-20T06:52:22;15.02;;;10.90;;
3070;SDS011;1546;47.208;9.038;2023-05-20T06:54:49;13.43;;;9.77;;
3070;SDS011;1546;47.208;9.038;2023-05-20T06:57:15;14.00;;;9.30;;
3070;SDS011;1546;47.208;9.038;2023-05-20T06:59:42;17.40;;;10.50;;
3070;SDS011;1546;47.208;9.038;2023-05-20T07:02:09;14.85;;;9.73;;
3070;SDS011;1546;47.208;9.038;2023-05-20T07:04:36;18.50;;;10.95;;
3070;SDS011;1546;47.208;9.038;2023-05-20T07:07:04;16.48;;;11.27;;
3070;SDS011;1546;47.208;9.038;2023-05-20T07:09:31;16.60;;;10.70;;
3070;SDS011;1546;47.208;9.038;2023-05-20T07:11:58;20.02;;;11.05;;
3070;SDS011;1546;47.208;9.038;2023-05-20T07:14:25;18.90;;;11.77;;
3070;SDS011;1546;47.208;9.038;2023-05-20T07:16:51;15.85;;;11.68;;
3070;SDS011;1546;47.208;9.038;2023-05-20T07:19:18;17.13;;;11.80;;
3070;SDS011;1546;47.208;9.038;2023-05-20T07:21:45;15.77;;;11.60;;
3070;SDS011;1546;47.208;9.038;2023-05-20T07:24:15;19.55;;;12.95;;
3070;SDS011;1546;47.208;9.038;2023-05-20T07:26:42;17.55;;;11.60;;
3070;SDS011;1546;47.208;9.038;2023-05-20T07:29:08;16.17;;;11.15;;
3070;SDS011;1546;47.208;9.038;2023-05-20T07:31:35;14.88;;;10.00;;
3070;SDS011;1546;47.208;9.038;2023-05-20T07:34:02;21.15;;;11.75;;
3070;SDS011;1546;47.208;9.038;2023-05-20T07:36:29;13.73;;;9.02;;
3070;SDS011;1546;47.208;9.038;2023-05-20T07:38:57;15.00;;;10.63;;
3070;SDS011;1546;47.208;9.038;2023-05-20T07:41:25;12.60;;;9.70;;
3070;SDS011;1546;47.208;9.038;2023-05-20T07:43:52;15.02;;;10.57;;
3070;SDS011;1546;47.208;9.038;2023-05-20T07:46:18;15.88;;;11.10;;
3070;SDS011;1546;47.208;9.038;2023-05-20T07:48:45;14.43;;;10.25;;
3070;SDS011;1546;47.208;9.038;2023-05-20T07:51:12;15.10;;;10.73;;
3070;SDS011;1546;47.208;9.038;2023-05-20T07:53:39;14.77;;;11.13;;
3070;SDS011;1546;47.208;9.038;2023-05-20T07:56:06;13.35;;;9.27;;
3070;SDS011;1546;47.208;9.038;2023-05-20T07:58:34;14.82;;;10.00;;
3070;SDS011;1546;47.208;9.038;2023-05-20T08:01:01;12.45;;;9.55;;
3070;SDS011;1546;47.208;9.038;2023-05-20T08:03:28;18.58;;;10.18;;
3070;SDS011;1546;47.208;9.038;2023-05-20T08:05:55;15.93;;;11.05;;
3070;SDS011;1546;47.208;9.038;2023-05-20T08:08:22;13.70;;;9.88;;
3070;SDS011;1546;47.208;9.038;2023-05-20T08:10:49;14.07;;;10.70;;
3070;SDS011;1546;47.208;9.038;2023-05-20T08:13:16;13.05;;;9.45;;
3070;SDS011;1546;47.208;9.038;2023-05-20T08:15:45;15.27;;;9.98;;
3070;SDS011;1546;47.208;9.038;2023-05-20T08:18:12;12.55;;;9.23;;
3070;SDS011;1546;47.208;9.038;2023-05-20T08:20:39;20.27;;;11.77;;
3070;SDS011;1546;47.208;9.038;2023-05-20T08:23:06;14.18;;;10.02;;
3070;SDS011;1546;47.208;9.038;2023-05-20T08:25:33;13.07;;;9.10;;
3070;SDS011;1546;47.208;9.038;2023-05-20T08:28:00;16.20;;;10.60;;
3070;SDS011;1546;47.208;9.038;2023-05-20T08:30:29;13.00;;;9.70;;
3070;SDS011;1546;47.208;9.038;2023-05-20T08:32:57;14.48;;;10.70;;
3070;SDS011;1546;47.208;9.038;2023-05-20T08:35:24;14.68;;;10.27;;
3070;SDS011;1546;47.208;9.038;2023-05-20T08:37:52;13.15;;;9.45;;
3070;SDS011;1546;47.208;9.038;2023-05-20T08:40:19;13.25;;;8.77;;
3070;SDS011;1546;47.208;9.038;2023-05-20T08:42:46;14.70;;;9.80;;
3070;SDS011;1546;47.208;9.038;2023-05-20T08:45:17;15.70;;;10.53;;
3070;SDS011;1546;47.208;9.038;2023-05-20T08:47:45;10.83;;;8.93;;
3070;SDS011;1546;47.208;9.038;2023-05-20T08:50:14;13.35;;;10.63;;
3070;SDS011;1546;47.208;9.038;2023-05-20T08:52:42;15.83;;;10.80;;
3070;SDS011;1546;47.208;9.038;2023-05-20T08:55:13;16.27;;;11.10;;
3070;SDS011;1546;47.208;9.038;2023-05-20T08:57:41;12.65;;;9.70;;
3070;SDS011;1546;47.208;9.038;2023-05-20T09:00:10;13.40;;;9.70;;
3070;SDS011;1546;47.208;9.038;2023-05-20T09:02:41;17.07;;;11.60;;
3070;SDS011;1546;47.208;9.038;2023-05-20T09:05:09;14.37;;;10.23;;
3070;SDS011;1546;47.208;9.038;2023-05-20T09:07:37;13.07;;;10.25;;
3070;SDS011;1546;47.208;9.038;2023-05-20T09:10:04;13.40;;;11.10;;
3070;SDS011;1546;47.208;9.038;2023-05-20T09:12:32;15.45;;;11.88;;
3070;SDS011;1546;47.208;9.038;2023-05-20T09:14:59;15.55;;;9.38;;
3070;SDS011;1546;47.208;9.038;2023-05-20T09:17:26;12.15;;;8.50;;
3070;SDS011;1546;47.208;9.038;2023-05-20T09:19:53;14.00;;;10.30;;
3070;SDS011;1546;47.208;9.038;2023-05-20T09:22:22;14.70;;;9.87;;
3070;SDS011;1546;47.208;9.038;2023-05-20T09:24:51;13.35;;;10.07;;
3070;SDS011;1546;47.208;9.038;2023-05-20T09:27:18;13.27;;;9.87;;
3070;SDS011;1546;47.208;9.038;2023-05-20T09:29:46;14.73;;;11.27;;
3070;SDS011;1546;47.208;9.038;2023-05-20T09:32:13;14.77;;;9.90;;
3070;SDS011;1546;47.208;9.038;2023-05-20T09:34:41;13.13;;;9.93;;
3070;SDS011;1546;47.208;9.038;2023-05-20T09:37:09;12.90;;;9.52;;
3070;SDS011;1546;47.208;9.038;2023-05-20T09:39:39;18.48;;;9.85;;
3070;SDS011;1546;47.208;9.038;2023-05-20T09:42:17;13.17;;;9.30;;
3070;SDS011;1546;47.208;9.038;2023-05-20T09:44:47;14.85;;;11.35;;
3070;SDS011;1546;47.208;9.038;2023-05-20T09:47:15;16.40;;;11.63;;
3070;SDS011;1546;47.208;9.038;2023-05-20T09:49:43;15.23;;;10.30;;
3070;SDS011;1546;47.208;9.038;2023-05-20T09:52:12;13.03;;;9.83;;
3070;SDS011;1546;47.208;9.038;2023-05-20T09:54:41;15.05;;;9.63;;
3070;SDS011;1546;47.208;9.038;2023-05-20T09:57:09;14.77;;;9.40;;
3070;SDS011;1546;47.208;9.038;2023-05-20T09:59:39;15.93;;;10.20;;
3070;SDS011;1546;47.208;9.038;2023-05-20T10:02:07;11.20;;;9.13;;
3070;SDS011;1546;47.208;9.038;2023-05-20T10:04:34;13.40;;;9.20;;
3070;SDS011;1546;47.208;9.038;2023-05-20T10:07:10;11.80;;;9.10;;
3070;SDS011;1546;47.208;9.038;2023-05-20T10:09:51;12.93;;;10.10;;
3070;SDS011;1546;47.208;9.038;2023-05-20T10:12:28;12.73;;;9.47;;
3070;SDS011;1546;47.208;9.038;2023-05-20T10:15:03;12.27;;;9.90;;
3070;SDS011;1546;47.208;9.038;2023-05-20T10:17:42;13.60;;;8.83;;
3070;SDS011;1546;47.208;9.038;2023-05-20T10:20:16;14.93;;;11.00;;
3070;SDS011;1546;47.208;9.038;2023-05-20T10:22:43;14.10;;;9.13;;
3070;SDS011;1546;47.208;9.038;2023-05-20T10:25:24;12.37;;;9.93;;
3070;SDS011;1546;47.208;9.038;2023-05-20T10:28:02;13.43;;;10.30;;
3070;SDS011;1546;47.208;9.038;2023-05-20T10:30:33;14.90;;;10.07;;
3070;SDS011;1546;47.208;9.038;2023-05-20T10:33:02;14.00;;;10.60;;
3070;SDS011;1546;47.208;9.038;2023-05-20T10:35:31;12.70;;;9.67;;
3070;SDS011;1546;47.208;9.038;2023-05-20T10:38:06;15.27;;;9.97;;
3070;SDS011;1546;47.208;9.038;2023-05-20T10:40:33;13.23;;;10.03;;
3070;SDS011;1546;47.208;9.038;2023-05-20T10:43:07;13.27;;;10.13;;
3070;SDS011;1546;47.208;9.038;2023-05-20T10:45:46;12.53;;;9.70;;
3070;SDS011;1546;47.208;9.038;2023-05-20T10:48:18;14.90;;;10.97;;
3070;SDS011;1546;47.208;9.038;2023-05-20T10:50:48;13.93;;;9.60;;
3070;SDS011;1546;47.208;9.038;2023-05-20T10:53:15;18.03;;;11.10;;
3070;SDS011;1546;47.208;9.038;2023-05-20T10:55:46;14.10;;;10.00;;
3070;SDS011;1546;47.208;9.038;2023-05-20T10:58:15;14.07;;;11.50;;
3070;SDS011;1546;47.208;9.038;2023-05-20T11:00:44;11.97;;;9.43;;
3070;SDS011;1546;47.208;9.038;2023-05-20T11:03:12;12.80;;;9.13;;
3070;SDS011;1546;47.208;9.038;2023-05-20T11:05:40;15.03;;;11.70;;
3070;SDS011;1546;47.208;9.038;2023-05-20T11:08:08;15.27;;;10.10;;
3070;SDS011;1546;47.208;9.038;2023-05-20T11:10:35;12.53;;;9.13;;
3070;SDS011;1546;47.208;9.038;2023-05-20T11:13:03;12.77;;;9.60;;
3070;SDS011;1546;47.208;9.038;2023-05-20T11:15:33;12.27;;;9.60;;
3070;SDS011;1546;47.208;9.038;2023-05-20T11:18:02;12.23;;;10.13;;
3070;SDS011;1546;47.208;9.038;2023-05-20T11:20:29;13.20;;;9.77;;
3070;SDS011;1546;47.208;9.038;2023-05-20T11:22:59;12.37;;;9.07;;
3070;SDS011;1546;47.208;9.038;2023-05-20T11:25:26;12.70;;;9.80;;
3070;SDS011;1546;47.208;9.038;2023-05-20T11:27:53;15.27;;;10.90;;
3070;SDS011;1546;47.208;9.038;2023-05-20T11:30:20;17.23;;;10.40;;
3070;SDS011;1546;47.208;9.038;2023-05-20T11:32:57;11.93;;;9.07;;
3070;SDS011;1546;47.208;9.038;2023-05-20T11:35:26;12.40;;;9.83;;
3070;SDS011;1546;47.208;9.038;2023-05-20T11:37:59;18.43;;;9.83;;
3070;SDS011;1546;47.208;9.038;2023-05-20T11:40:27;11.67;;;9.80;;
3070;SDS011;1546;47.208;9.038;2023-05-20T11:42:58;13.40;;;10.40;;
3070;SDS011;1546;47.208;9.038;2023-05-20T11:45:26;14.20;;;11.03;;
3070;SDS011;1546;47.208;9.038;2023-05-20T11:47:59;13.67;;;12.17;;
3070;SDS011;1546;47.208;9.038;2023-05-20T11:50:33;14.07;;;9.90;;
3070;SDS011;1546;47.208;9.038;2023-05-20T11:53:03;14.20;;;10.63;;
3070;SDS011;1546;47.208;9.038;2023-05-20T11:55:31;12.60;;;9.67;;
3070;SDS011;1546;47.208;9.038;2023-05-20T11:57:58;13.57;;;10.13;;
3070;SDS011;1546;47.208;9.038;2023-05-20T12:00:26;14.57;;;10.53;;
3070;SDS011;1546;47.208;9.038;2023-05-20T12:02:53;13.83;;;10.80;;
3070;SDS011;1546;47.208;9.038;2023-05-20T12:05:20;16.77;;;11.67;;
3070;SDS011;1546;47.208;9.038;2023-05-20T12:07:49;12.93;;;8.67;;
3070;SDS011;1546;47.208;9.038;2023-05-20T12:10:15;13.87;;;10.37;;
3070;SDS011;1546;47.208;9.038;2023-05-20T12:12:42;13.23;;;10.60;;
3070;SDS011;1546;47.208;9.038;2023-05-20T12:15:10;11.53;;;8.57;;
3070;SDS011;1546;47.208;9.038;2023-05-20T12:17:44;11.50;;;8.77;;
3070;SDS011;1546;47.208;9.038;2023-05-20T12:20:14;11.97;;;10.03;;
3070;SDS011;1546;47.208;9.038;2023-05-20T12:22:42;12.30;;;9.80;;
3070;SDS011;1546;47.208;9.038;2023-05-20T12:25:11;13.23;;;10.47;;
3070;SDS011;1546;47.208;9.038;2023-05-20T12:27:39;16.13;;;11.57;;
3070;SDS011;1546;47.208;9.038;2023-05-20T12:30:07;12.50;;;9.53;;
3070;SDS011;1546;47.208;9.038;2023-05-20T12:32:35;11.53;;;8.90;;
3070;SDS011;1546;47.208;9.038;2023-05-20T12:35:03;16.60;;;9.20;;
3070;SDS011;1546;47.208;9.038;2023-05-20T12:37:30;11.17;;;8.97;;
3070;SDS011;1546;47.208;9.038;2023-05-20T12:39:57;15.00;;;10.20;;
3070;SDS011;1546;47.208;9.038;2023-05-20T12:42:26;11.50;;;8.17;;
3070;SDS011;1546;47.208;9.038;2023-05-20T12:44:52;14.87;;;10.67;;
3070;SDS011;1546;47.208;9.038;2023-05-20T12:47:19;14.03;;;10.17;;
3070;SDS011;1546;47.208;9.038;2023-05-20T12:49:46;13.13;;;9.20;;
3070;SDS011;1546;47.208;9.038;2023-05-20T12:52:13;17.37;;;10.93;;
3070;SDS011;1546;47.208;9.038;2023-05-20T12:54:40;15.53;;;10.77;;
3070;SDS011;1546;47.208;9.038;2023-05-20T12:57:07;14.87;;;8.90;;
3070;SDS011;1546;47.208;9.038;2023-05-20T12:59:35;13.10;;;9.13;;
3070;SDS011;1546;47.208;9.038;2023-05-20T13:02:02;13.13;;;9.10;;
3070;SDS011;1546;47.208;9.038;2023-05-20T13:04:29;14.83;;;10.13;;
3070;SDS011;1546;47.208;9.038;2023-05-20T13:06:56;13.30;;;8.97;;
3070;SDS011;1546;47.208;9.038;2023-05-20T13:09:23;12.93;;;8.53;;
3070;SDS011;1546;47.208;9.038;2023-05-20T13:11:50;12.73;;;10.10;;
3070;SDS011;1546;47.208;9.038;2023-05-20T13:14:17;11.37;;;8.50;;
3070;SDS011;1546;47.208;9.038;2023-05-20T13:16:47;13.13;;;9.57;;
3070;SDS011;1546;47.208;9.038;2023-05-20T13:19:15;14.97;;;9.57;;
3070;SDS011;1546;47.208;9.038;2023-05-20T13:21:41;10.87;;;8.70;;
3070;SDS011;1546;47.208;9.038;2023-05-20T13:24:08;12.40;;;8.07;;
3070;SDS011;1546;47.208;9.038;2023-05-20T13:26:35;12.47;;;9.33;;
3070;SDS011;1546;47.208;9.038;2023-05-20T13:29:02;14.33;;;9.10;;
3070;SDS011;1546;47.208;9.038;2023-05-20T13:31:29;17.43;;;10.73;;
3070;SDS011;1546;47.208;9.038;2023-05-20T13:33:57;12.47;;;9.17;;
3070;SDS011;1546;47.208;9.038;2023-05-20T13:36:24;14.30;;;10.80;;
3070;SDS011;1546;47.208;9.038;2023-05-20T13:38:51;12.50;;;8.73;;
3070;SDS011;1546;47.208;9.038;2023-05-20T13:41:18;11.90;;;9.13;;
3070;SDS011;1546;47.208;9.038;2023-05-20T13:43:45;11.07;;;8.50;;
3070;SDS011;1546;47.208;9.038;2023-05-20T13:46:12;10.30;;;8.10;;
3070;SDS011;1546;47.208;9.038;2023-05-20T13:48:39;11.43;;;8.53;;
3070;SDS011;1546;47.208;9.038;2023-05-20T13:51:07;12.50;;;9.40;;
3070;SDS011;1546;47.208;9.038;2023-05-20T13:53:34;10.53;;;7.83;;
3070;SDS011;1546;47.208;9.038;2023-05-20T13:56:01;16.80;;;9.53;;
3070;SDS011;1546;47.208;9.038;2023-05-20T13:58:28;13.70;;;10.57;;
3070;SDS011;1546;47.208;9.038;2023-05-20T14:00:55;11.77;;;9.17;;
3070;SDS011;1546;47.208;9.038;2023-05-20T14:03:22;12.43;;;9.77;;
3070;SDS011;1546;47.208;9.038;2023-05-20T14:05:49;9.40;;;8.40;;
3070;SDS011;1546;47.208;9.038;2023-05-20T14:08:17;13.80;;;10.20;;
3070;SDS011;1546;47.208;9.038;2023-05-20T14:10:44;16.10;;;9.80;;
3070;SDS011;1546;47.208;9.038;2023-05-20T14:13:11;13.50;;;8.90;;
3070;SDS011;1546;47.208;9.038;2023-05-20T14:15:38;15.97;;;10.80;;
3070;SDS011;1546;47.208;9.038;2023-05-20T14:18:05;15.68;;;10.35;;
3070;SDS011;1546;47.208;9.038;2023-05-20T14:20:32;12.15;;;8.80;;
3070;SDS011;1546;47.208;9.038;2023-05-20T14:22:58;12.90;;;9.75;;
3070;SDS011;1546;47.208;9.038;2023-05-20T14:25:27;11.90;;;8.77;;
3070;SDS011;1546;47.208;9.038;2023-05-20T14:27:54;15.00;;;9.90;;
3070;SDS011;1546;47.208;9.038;2023-05-20T14:30:21;14.97;;;10.80;;
3070;SDS011;1546;47.208;9.038;2023-05-20T14:32:47;13.40;;;9.60;;
3070;SDS011;1546;47.208;9.038;2023-05-20T14:35:14;14.63;;;11.03;;
3070;SDS011;1546;47.208;9.038;2023-05-20T14:37:42;15.97;;;9.70;;
3070;SDS011;1546;47.208;9.038;2023-05-20T14:40:09;14.67;;;10.73;;
3070;SDS011;1546;47.208;9.038;2023-05-20T14:42:38;13.53;;;9.60;;
3070;SDS011;1546;47.208;9.038;2023-05-20T14:45:06;10.93;;;8.70;;
3070;SDS011;1546;47.208;9.038;2023-05-20T14:47:33;14.80;;;9.70;;
3070;SDS011;1546;47.208;9.038;2023-05-20T14:50:00;17.30;;;8.80;;
3070;SDS011;1546;47.208;9.038;2023-05-20T14:52:27;12.60;;;9.60;;
3070;SDS011;1546;47.208;9.038;2023-05-20T14:54:54;14.03;;;9.80;;
3070;SDS011;1546;47.208;9.038;2023-05-20T14:57:21;14.03;;;10.10;;
3070;SDS011;1546;47.208;9.038;2023-05-20T14:59:49;14.40;;;10.53;;
3070;SDS011;1546;47.208;9.038;2023-05-20T15:02:16;13.90;;;9.80;;